createdAt,value
2018-06-19T00:01:12.941Z,3.27
2018-06-19T00:03:42.503Z,3.60
2018-06-19T00:06:11.262Z,3.30
2018-06-19T00:08:39.984Z,3.23
2018-06-19T00:11:09.389Z,3.40
2018-06-19T00:13:38.136Z,3.70
2018-06-19T00:16:06.866Z,3.50
2018-06-19T00:18:40.810Z,3.70
2018-06-19T00:21:11.841Z,3.23
2018-06-19T00:23:41.577Z,3.40
2018-06-19T00:26:11.057Z,4.13
2018-06-19T00:28:42.199Z,3.20
2018-06-19T00:31:11.701Z,3.40
2018-06-19T00:33:40.398Z,3.23
2018-06-19T00:36:09.803Z,3.63
2018-06-19T00:38:38.573Z,3.33
2018-06-19T00:41:07.323Z,3.50
2018-06-19T00:43:36.074Z,3.70
2018-06-19T00:46:05.235Z,4.00
2018-06-19T00:48:34.978Z,3.33
2018-06-19T00:51:03.765Z,4.07
2018-06-19T00:53:33.238Z,3.73
2018-06-19T00:56:13.233Z,3.70
2018-06-19T00:58:42.186Z,3.83
2018-06-19T01:01:11.152Z,4.20
2018-06-19T01:03:39.935Z,3.77
2018-06-19T01:06:08.717Z,4.40
2018-06-19T01:08:37.562Z,3.53
2018-06-19T01:11:06.238Z,3.50
2018-06-19T01:13:34.966Z,3.40
2018-06-19T01:16:03.674Z,3.93
2018-06-19T01:18:32.293Z,3.60
2018-06-19T01:21:03.246Z,3.60
2018-06-19T01:23:31.920Z,3.93
2018-06-19T01:26:01.711Z,3.77
2018-06-19T01:28:30.520Z,4.70
2018-06-19T01:30:59.331Z,3.93
2018-06-19T01:33:28.024Z,3.50
2018-06-19T01:35:56.691Z,3.73
2018-06-19T01:38:25.398Z,4.10
2018-06-19T01:40:54.638Z,3.97
2018-06-19T01:43:23.265Z,4.40
2018-06-19T01:45:51.895Z,3.70
2018-06-19T01:48:20.524Z,3.40
2018-06-19T01:50:49.178Z,3.50
2018-06-19T01:53:17.902Z,3.90
2018-06-19T01:55:46.562Z,3.87
2018-06-19T01:58:15.197Z,3.60
2018-06-19T02:00:43.862Z,3.80
2018-06-19T02:03:12.470Z,3.70
2018-06-19T02:05:41.162Z,3.50
2018-06-19T02:08:09.819Z,4.00
2018-06-19T02:10:38.467Z,3.83
2018-06-19T02:13:07.187Z,3.70
2018-06-19T02:15:35.793Z,4.00
2018-06-19T02:18:04.406Z,4.03
2018-06-19T02:20:33.045Z,3.60
2018-06-19T02:23:01.727Z,4.50
2018-06-19T02:25:30.384Z,3.43
2018-06-19T02:27:59.003Z,4.00
2018-06-19T02:30:27.620Z,4.20
2018-06-19T02:32:56.239Z,4.00
2018-06-19T02:35:24.937Z,4.57
2018-06-19T02:37:53.653Z,4.07
2018-06-19T02:40:22.433Z,4.23
2018-06-19T02:42:51.045Z,4.10
2018-06-19T02:45:19.708Z,3.83
2018-06-19T02:47:48.320Z,4.07
2018-06-19T02:50:16.980Z,4.27
2018-06-19T02:52:45.600Z,4.10
2018-06-19T02:55:14.262Z,3.90
2018-06-19T02:57:42.915Z,3.73
2018-06-19T03:00:11.607Z,4.40
2018-06-19T03:02:40.252Z,4.17
2018-06-19T03:05:08.846Z,4.20
2018-06-19T03:07:37.489Z,3.67
2018-06-19T03:10:06.340Z,3.70
2018-06-19T03:12:35.784Z,3.90
2018-06-19T03:15:04.440Z,3.73
2018-06-19T03:17:33.075Z,3.70
2018-06-19T03:20:01.713Z,3.40
2018-06-19T03:22:30.369Z,3.70
2018-06-19T03:24:59.014Z,3.67
2018-06-19T03:27:27.704Z,3.87
2018-06-19T03:29:56.356Z,4.43
2018-06-19T03:32:24.993Z,3.77
2018-06-19T03:34:53.617Z,4.03
2018-06-19T03:37:22.257Z,3.70
2018-06-19T03:39:50.946Z,3.73
2018-06-19T03:42:19.586Z,3.80
2018-06-19T03:44:48.174Z,3.73
2018-06-19T03:47:16.783Z,4.07
2018-06-19T03:49:45.450Z,3.97
2018-06-19T03:52:14.133Z,3.70
2018-06-19T03:54:42.757Z,3.70
2018-06-19T03:57:11.405Z,3.47
2018-06-19T03:59:40.081Z,3.40
2018-06-19T04:02:08.776Z,3.40
2018-06-19T04:04:37.486Z,3.90
2018-06-19T04:07:06.142Z,3.67
2018-06-19T04:09:34.807Z,3.27
2018-06-19T04:12:03.469Z,3.30
2018-06-19T04:14:32.090Z,3.10
2018-06-19T04:17:00.733Z,3.10
2018-06-19T04:19:29.370Z,3.00
2018-06-19T04:21:58.565Z,3.23
2018-06-19T04:24:27.353Z,3.40
2018-06-19T04:26:55.973Z,3.37
2018-06-19T04:29:24.581Z,3.70
2018-06-19T04:31:53.210Z,3.40
2018-06-19T04:34:21.900Z,3.30
2018-06-19T04:36:50.524Z,3.10
2018-06-19T04:39:20.079Z,3.33
2018-06-19T04:41:48.745Z,3.17
2018-06-19T04:44:17.413Z,3.37
2018-06-19T04:46:46.053Z,3.13
2018-06-19T04:49:14.754Z,3.90
2018-06-19T04:51:43.465Z,3.20
2018-06-19T04:54:12.186Z,3.60
2018-06-19T04:56:41.388Z,3.07
2018-06-19T04:59:10.045Z,3.97
2018-06-19T05:01:38.659Z,3.10
2018-06-19T05:04:07.338Z,2.87
2018-06-19T05:06:36.209Z,2.63
2018-06-19T05:09:08.001Z,3.40
2018-06-19T05:11:36.706Z,2.73
2018-06-19T05:14:05.328Z,2.70
2018-06-19T05:16:33.964Z,2.63
2018-06-19T05:19:02.585Z,2.87
2018-06-19T05:21:31.822Z,2.40
2018-06-19T05:24:04.488Z,2.93
2018-06-19T05:26:33.130Z,3.00
2018-06-19T05:29:01.871Z,3.00
2018-06-19T05:31:30.852Z,2.87
2018-06-19T05:33:59.871Z,2.77
2018-06-19T05:36:28.562Z,3.00
2018-06-19T05:38:57.266Z,2.50
2018-06-19T05:41:25.867Z,2.63
2018-06-19T05:43:55.229Z,3.27
2018-06-19T05:46:23.944Z,2.67
2018-06-19T05:48:52.497Z,2.60
2018-06-19T05:51:21.163Z,2.70
2018-06-19T05:53:49.930Z,3.20
2018-06-19T05:56:18.616Z,2.80
2018-06-19T05:58:47.343Z,2.70
2018-06-19T06:01:16.035Z,2.43
2018-06-19T06:03:44.666Z,3.03
2018-06-19T06:06:13.320Z,3.00
2018-06-19T06:08:41.975Z,3.00
2018-06-19T06:11:10.663Z,2.87
2018-06-19T06:13:39.351Z,2.87
2018-06-19T06:16:08.041Z,2.70
2018-06-19T06:18:36.722Z,3.13
2018-06-19T06:21:05.417Z,2.90
2018-06-19T06:23:34.791Z,2.23
2018-06-19T06:26:03.379Z,3.13
2018-06-19T06:28:32.025Z,2.10
2018-06-19T06:31:00.652Z,3.00
2018-06-19T06:33:29.286Z,2.40
2018-06-19T06:35:58.566Z,2.47
2018-06-19T06:38:27.182Z,2.90
2018-06-19T06:40:55.825Z,2.30
2018-06-19T06:43:24.436Z,2.67
2018-06-19T06:45:53.021Z,2.20
2018-06-19T06:48:22.306Z,2.60
2018-06-19T06:50:50.918Z,2.90
2018-06-19T06:53:19.569Z,2.30
2018-06-19T06:55:48.189Z,2.40
2018-06-19T06:58:16.858Z,3.20
2018-06-19T07:00:45.539Z,2.90
2018-06-19T07:03:14.148Z,2.43
2018-06-19T07:05:43.845Z,2.80
2018-06-19T07:08:12.509Z,2.40
2018-06-19T07:10:41.142Z,2.70
2018-06-19T07:13:09.758Z,2.70
2018-06-19T07:15:38.395Z,2.70
2018-06-19T07:18:07.025Z,2.43
2018-06-19T07:20:36.189Z,2.57
2018-06-19T07:23:04.898Z,2.87
2018-06-19T07:25:33.813Z,2.80
2018-06-19T07:28:02.431Z,2.93
2018-06-19T07:30:31.091Z,2.73
2018-06-19T07:32:59.818Z,2.60
2018-06-19T07:48:19.433Z,2.90
2018-06-19T07:50:48.021Z,3.00
2018-06-19T07:53:16.649Z,2.20
2018-06-19T07:55:45.266Z,2.47
2018-06-19T07:58:13.889Z,2.50
2018-06-19T08:00:42.496Z,3.00
2018-06-19T08:03:11.074Z,2.07
2018-06-19T08:05:39.674Z,2.93
2018-06-19T08:08:08.293Z,2.60
2018-06-19T08:10:37.509Z,2.90
2018-06-19T08:13:06.169Z,2.70
2018-06-19T08:15:34.749Z,2.60
2018-06-19T08:18:03.365Z,2.53
2018-06-19T08:20:31.961Z,2.27
2018-06-19T08:23:00.552Z,3.00
2018-06-19T08:25:29.821Z,2.50
2018-06-19T08:27:58.435Z,3.00
2018-06-19T08:30:27.633Z,2.53
2018-06-19T08:32:57.484Z,2.90
2018-06-19T08:35:26.106Z,2.43
2018-06-19T08:37:55.160Z,2.50
2018-06-19T08:40:24.298Z,2.80
2018-06-19T08:42:52.942Z,2.53
2018-06-19T08:45:21.529Z,2.10
2018-06-19T08:47:50.153Z,3.30
2018-06-19T08:50:18.805Z,2.30
2018-06-19T08:52:47.454Z,2.37
2018-06-19T08:55:16.376Z,2.50
2018-06-19T08:57:44.956Z,3.00
2018-06-19T09:00:13.692Z,2.83
2018-06-19T09:02:42.312Z,3.03
2018-06-19T09:05:10.943Z,2.93
2018-06-19T09:07:39.603Z,2.90
2018-06-19T09:10:08.231Z,2.80
2018-06-19T09:12:36.813Z,3.13
2018-06-19T09:15:05.440Z,2.70
2018-06-19T09:17:34.337Z,2.80
2018-06-19T09:20:03.027Z,2.53
2018-06-19T09:22:31.648Z,2.40
2018-06-19T09:25:00.286Z,2.30
2018-06-19T09:27:28.879Z,2.20
2018-06-19T09:29:57.504Z,2.77
2018-06-19T09:32:26.138Z,2.10
2018-06-19T09:34:54.767Z,2.10
2018-06-19T09:37:23.354Z,2.20
2018-06-19T09:39:52.112Z,1.70
2018-06-19T09:42:20.683Z,1.53
2018-06-19T09:44:49.327Z,1.80
2018-06-19T09:47:17.921Z,1.70
2018-06-19T09:49:46.550Z,1.90
2018-06-19T09:52:15.441Z,2.10
2018-06-19T09:54:44.206Z,1.97
2018-06-19T09:57:12.813Z,2.13
2018-06-19T09:59:41.525Z,1.83
2018-06-19T10:02:10.198Z,2.00
2018-06-19T10:04:38.950Z,2.17
2018-06-19T10:07:07.579Z,1.97
2018-06-19T10:09:36.245Z,2.23
2018-06-19T10:12:04.985Z,1.60
2018-06-19T10:14:33.631Z,2.27
2018-06-19T10:17:02.269Z,1.60
2018-06-19T10:19:32.148Z,1.80
2018-06-19T10:22:00.785Z,1.67
2018-06-19T10:24:29.525Z,1.60
2018-06-19T10:26:58.518Z,1.67
2018-06-19T10:29:27.794Z,1.43
2018-06-19T10:31:57.008Z,1.87
2018-06-19T10:34:26.314Z,1.67
2018-06-19T10:36:55.189Z,1.33
2018-06-19T10:39:30.208Z,1.50
2018-06-19T10:41:58.807Z,1.63
2018-06-19T10:44:28.220Z,1.90
2018-06-19T10:46:56.803Z,2.30
2018-06-19T10:49:25.475Z,2.20
2018-06-19T10:51:54.053Z,1.80
2018-06-19T10:54:23.572Z,1.63
2018-06-19T10:56:52.426Z,1.53
2018-06-19T10:59:21.064Z,1.83
2018-06-19T11:01:50.408Z,1.67
2018-06-19T11:04:19.343Z,1.70
2018-06-19T11:06:48.057Z,1.90
2018-06-19T11:09:17.567Z,1.60
2018-06-19T11:11:46.148Z,2.10
2018-06-19T11:14:14.801Z,1.70
2018-06-19T11:16:43.709Z,1.77
2018-06-19T11:19:13.461Z,1.93
2018-06-19T11:21:42.259Z,1.47
2018-06-19T11:24:10.865Z,2.23
2018-06-19T11:26:39.469Z,2.10
2018-06-19T11:29:08.119Z,2.03
2018-06-19T11:31:37.173Z,2.23
2018-06-19T11:34:06.236Z,1.67
2018-06-19T11:36:34.895Z,2.60
2018-06-19T11:39:04.752Z,2.07
2018-06-19T11:41:33.366Z,2.10
2018-06-19T11:44:02.047Z,2.00
2018-06-19T11:46:30.688Z,1.70
2018-06-19T11:48:59.312Z,2.07
2018-06-19T11:51:29.515Z,1.47
2018-06-19T11:53:58.822Z,1.70
2018-06-19T11:56:27.393Z,1.73
2018-06-19T11:58:56.031Z,1.97
2018-06-19T12:01:27.282Z,2.03
2018-06-19T12:03:55.895Z,2.20
2018-06-19T12:06:24.487Z,2.00
2018-06-19T12:08:53.133Z,1.90
2018-06-19T12:11:21.754Z,2.20
2018-06-19T12:13:50.394Z,2.83
2018-06-19T12:16:19.000Z,2.70
2018-06-19T12:18:47.601Z,2.20
2018-06-19T12:21:16.313Z,2.30
2018-06-19T12:23:44.961Z,1.80
2018-06-19T12:26:14.792Z,1.67
2018-06-19T12:28:43.443Z,2.10
2018-06-19T12:31:12.051Z,1.77
2018-06-19T12:33:40.718Z,1.87
2018-06-19T12:36:09.502Z,2.07
2018-06-19T12:38:38.293Z,3.47
2018-06-19T12:41:06.962Z,2.30
2018-06-19T12:43:35.589Z,1.80
2018-06-19T12:46:04.238Z,1.60
2018-06-19T12:48:32.905Z,1.90
2018-06-19T12:52:15.371Z,1.70
2018-06-19T12:54:54.953Z,1.70
2018-06-19T12:57:23.611Z,1.63
2018-06-19T12:59:52.245Z,1.90
2018-06-19T13:02:20.826Z,1.90
2018-06-19T13:05:00.443Z,1.70
2018-06-19T13:07:29.126Z,1.77
2018-06-19T13:09:57.780Z,1.50
2018-06-19T13:12:37.452Z,2.23
2018-06-19T13:15:06.172Z,1.90
2018-06-19T13:17:45.700Z,1.93
2018-06-19T13:20:25.199Z,1.77
2018-06-19T13:22:53.859Z,1.70
2018-06-19T13:25:22.477Z,1.80
2018-06-19T13:27:51.153Z,1.60
2018-06-19T13:30:30.882Z,1.73
2018-06-19T13:32:59.486Z,2.03
2018-06-19T13:35:28.156Z,1.57
2018-06-19T13:37:56.743Z,1.90
2018-06-19T13:41:01.934Z,2.03
2018-06-19T13:43:41.911Z,1.67
2018-06-19T13:46:11.194Z,2.00
2018-06-19T13:48:40.687Z,1.60
2018-06-19T13:51:10.095Z,1.80
2018-06-19T13:53:38.736Z,1.67
2018-06-19T13:57:18.203Z,1.67
2018-06-19T13:59:46.811Z,2.10
2018-06-19T14:02:15.499Z,2.03
2018-06-19T14:04:44.122Z,1.77
2018-06-19T14:07:12.794Z,1.63
2018-06-19T14:09:52.420Z,1.47
2018-06-19T14:12:36.049Z,1.57
2018-06-19T14:15:04.705Z,1.13
2018-06-19T14:17:33.381Z,1.50
2018-06-19T14:20:01.959Z,1.27
2018-06-19T14:22:30.584Z,1.40
2018-06-19T14:24:59.180Z,1.60
2018-06-19T14:27:27.766Z,1.27
2018-06-19T14:29:56.349Z,1.70
2018-06-19T14:32:24.997Z,1.13
2018-06-19T14:34:53.597Z,1.27
2018-06-19T14:37:22.203Z,1.30
2018-06-19T14:39:50.836Z,1.30
2018-06-19T14:42:19.489Z,1.47
2018-06-19T14:44:48.122Z,1.37
2018-06-19T14:47:16.690Z,1.40
2018-06-19T14:49:45.306Z,1.77
2018-06-19T14:52:13.913Z,1.40
2018-06-19T14:54:42.512Z,1.23
2018-06-19T14:57:11.159Z,1.20
2018-06-19T14:59:39.962Z,1.60
2018-06-19T15:02:08.562Z,1.40
2018-06-19T15:04:37.245Z,1.20
2018-06-19T15:07:05.870Z,1.60
2018-06-19T15:09:34.628Z,1.47
2018-06-19T15:12:03.320Z,1.20
2018-06-19T15:14:31.920Z,1.40
2018-06-19T15:17:00.511Z,1.60
2018-06-19T15:19:29.108Z,1.43
2018-06-19T15:21:57.750Z,1.40
2018-06-19T15:24:26.343Z,1.53
2018-06-19T15:26:54.966Z,1.20
2018-06-19T15:29:23.601Z,1.33
2018-06-19T15:31:52.271Z,1.10
2018-06-19T15:34:20.866Z,1.47
2018-06-19T15:36:49.469Z,1.60
2018-06-19T15:39:18.136Z,1.30
2018-06-19T15:41:46.757Z,1.50
2018-06-19T15:44:15.408Z,1.00
2018-06-19T15:46:44.017Z,1.20
2018-06-19T15:49:12.684Z,1.57
2018-06-19T15:51:41.322Z,1.57
2018-06-19T15:54:09.982Z,0.97
2018-06-19T15:56:38.590Z,1.10
2018-06-19T15:59:07.223Z,1.27
2018-06-19T16:01:35.814Z,1.40
2018-06-19T16:04:04.517Z,1.63
2018-06-19T16:06:33.264Z,1.10
2018-06-19T16:09:01.838Z,1.60
2018-06-19T16:11:30.555Z,1.33
2018-06-19T16:13:59.183Z,0.90
2018-06-19T16:16:27.905Z,1.40
2018-06-19T16:18:56.554Z,1.20
2018-06-19T16:21:25.240Z,1.40
2018-06-19T16:23:53.942Z,1.10
2018-06-19T16:26:22.697Z,1.03
2018-06-19T16:28:51.381Z,1.60
2018-06-19T16:31:20.066Z,1.90
2018-06-19T16:33:48.830Z,1.30
2018-06-19T16:36:18.051Z,1.13
2018-06-19T16:38:46.713Z,1.30
2018-06-19T16:41:15.326Z,1.37
2018-06-19T16:43:44.125Z,1.20
2018-06-19T16:46:12.782Z,0.90
2018-06-19T16:48:41.374Z,1.47
2018-06-19T16:51:10.006Z,1.17
2018-06-19T16:53:38.655Z,1.63
2018-06-19T16:56:07.427Z,1.40
2018-06-19T16:58:36.155Z,1.63
2018-06-19T17:01:05.350Z,1.43
2018-06-19T17:03:34.025Z,1.20
2018-06-19T17:06:02.834Z,1.40
2018-06-19T17:08:31.521Z,1.43
2018-06-19T17:11:00.142Z,1.70
2018-06-19T17:13:28.869Z,1.80
2018-06-19T17:15:57.509Z,1.37
2018-06-19T17:18:26.124Z,1.47
2018-06-19T17:20:54.777Z,1.90
2018-06-19T17:23:23.451Z,1.63
2018-06-19T17:25:52.106Z,1.67
2018-06-19T17:28:20.703Z,1.80
2018-06-19T17:30:49.304Z,1.53
2018-06-19T17:33:17.898Z,1.33
2018-06-19T17:35:47.574Z,1.27
2018-06-19T17:38:16.223Z,1.40
2018-06-19T17:40:44.865Z,2.20
2018-06-19T17:43:13.450Z,1.50
2018-06-19T17:45:42.130Z,1.30
2018-06-19T17:48:10.738Z,1.50
2018-06-19T17:50:39.388Z,1.63
2018-06-19T17:53:08.014Z,1.87
2018-06-19T17:55:36.685Z,1.80
2018-06-19T17:58:05.453Z,1.97
2018-06-19T18:00:34.147Z,1.87
2018-06-19T18:03:02.778Z,1.63
2018-06-19T18:05:31.404Z,1.50
2018-06-19T18:08:00.171Z,1.97
2018-06-19T18:10:28.834Z,1.90
2018-06-19T18:12:58.166Z,2.13
2018-06-19T18:15:26.844Z,2.20
2018-06-19T18:17:55.481Z,1.97
2018-06-19T18:20:24.100Z,2.03
2018-06-19T18:22:52.757Z,2.23
2018-06-19T18:25:21.422Z,1.73
2018-06-19T18:27:50.088Z,2.07
2018-06-19T18:30:18.797Z,1.93
2018-06-19T18:32:47.474Z,2.07
2018-06-19T18:35:16.122Z,1.87
2018-06-19T18:37:44.746Z,2.30
2018-06-19T18:40:13.408Z,2.00
2018-06-19T18:42:42.772Z,2.07
2018-06-19T18:45:11.373Z,2.27
2018-06-19T18:47:40.023Z,1.87
2018-06-19T18:50:08.842Z,1.70
2018-06-19T18:52:37.481Z,2.30
2018-06-19T18:55:06.081Z,1.93
2018-06-19T18:57:34.821Z,1.87
2018-06-19T19:00:03.600Z,1.87
2018-06-19T19:02:32.857Z,2.10
2018-06-19T19:05:01.538Z,2.23
2018-06-19T19:07:30.205Z,1.70
2018-06-19T19:10:03.963Z,1.43
2018-06-19T19:12:32.602Z,2.20
2018-06-19T19:15:06.521Z,2.37
2018-06-19T19:17:40.298Z,2.00
2018-06-19T19:20:08.985Z,1.97
2018-06-19T19:22:38.542Z,2.60
2018-06-19T19:25:07.174Z,1.93
2018-06-19T19:27:40.939Z,2.40
2018-06-19T19:30:09.823Z,2.50
2018-06-19T19:32:38.592Z,2.40
2018-06-19T19:35:07.330Z,2.27
2018-06-19T19:37:41.235Z,2.20
2018-06-19T19:40:10.009Z,2.27
2018-06-19T19:42:38.694Z,2.13
2018-06-19T19:45:07.361Z,2.33
2018-06-19T19:47:41.167Z,2.60
2018-06-19T19:50:09.920Z,2.60
2018-06-19T19:52:38.601Z,2.20
2018-06-19T19:55:07.386Z,2.60
2018-06-19T19:57:41.142Z,2.30
2018-06-19T20:00:11.862Z,2.53
2018-06-19T20:02:40.575Z,2.17
2018-06-19T20:05:09.250Z,2.40
2018-06-19T20:07:37.882Z,2.97
2018-06-19T20:10:06.630Z,2.37
2018-06-19T20:12:35.280Z,2.43
2018-06-19T20:15:04.011Z,2.40
2018-06-19T20:17:32.781Z,2.30
2018-06-19T20:20:01.572Z,2.60
2018-06-19T20:22:30.237Z,2.30
2018-06-19T20:24:58.836Z,2.70
2018-06-19T20:27:27.516Z,2.53
2018-06-19T20:29:56.171Z,2.90
2018-06-19T20:32:24.797Z,2.33
2018-06-19T20:34:53.660Z,2.50
2018-06-19T20:37:22.346Z,2.80
2018-06-19T20:39:51.068Z,2.50
2018-06-19T20:42:19.755Z,2.00
2018-06-19T20:44:48.690Z,2.53
2018-06-19T20:47:17.849Z,2.40
2018-06-19T20:49:46.527Z,2.53
2018-06-19T20:52:15.162Z,2.20
2018-06-19T20:54:43.838Z,2.73
2018-06-19T20:57:12.456Z,2.50
2018-06-19T20:59:41.068Z,2.37
2018-06-19T21:02:10.398Z,2.50
2018-06-19T21:04:41.557Z,2.30
2018-06-19T21:07:10.196Z,2.47
2018-06-19T21:09:39.035Z,2.63
2018-06-19T21:12:08.059Z,2.30
2018-06-19T21:14:36.741Z,2.60
2018-06-19T21:17:05.383Z,2.30
2018-06-19T21:19:37.674Z,2.20
2018-06-19T21:22:06.650Z,2.20
2018-06-19T21:24:36.297Z,2.70
2018-06-19T21:27:05.143Z,2.73
2018-06-19T21:29:33.915Z,2.50
2018-06-19T21:32:02.636Z,3.40
2018-06-19T21:34:31.298Z,2.30
2018-06-19T21:36:59.998Z,2.50
2018-06-19T21:39:28.646Z,2.40
2018-06-19T21:41:58.310Z,2.50
2018-06-19T21:44:27.074Z,2.50
2018-06-19T21:46:55.677Z,2.60
2018-06-19T21:49:25.043Z,2.40
2018-06-19T21:51:53.721Z,2.60
2018-06-19T21:54:22.801Z,2.80
2018-06-19T21:56:52.137Z,2.73
2018-06-19T21:59:20.717Z,2.43
2018-06-19T22:01:49.459Z,2.50
2018-06-19T22:04:18.145Z,2.50
2018-06-19T22:06:46.743Z,2.60
2018-06-19T22:09:15.350Z,2.87
2018-06-19T22:11:43.952Z,2.90
2018-06-19T22:14:12.575Z,2.40
2018-06-19T22:16:41.182Z,3.37
2018-06-19T22:19:10.703Z,2.33
2018-06-19T22:21:39.914Z,2.43
2018-06-19T22:24:09.043Z,2.03
2018-06-19T22:26:37.689Z,2.67
2018-06-19T22:29:06.272Z,3.30
2018-06-19T22:31:34.916Z,2.50
2018-06-19T22:34:03.509Z,2.67
2018-06-19T22:36:32.128Z,3.07
2018-06-19T22:39:00.745Z,2.50
2018-06-19T22:41:29.334Z,2.77
2018-06-19T22:43:57.944Z,2.60
2018-06-19T22:46:26.625Z,2.70
2018-06-19T22:48:55.269Z,2.97
2018-06-19T22:51:23.913Z,2.43
2018-06-19T22:53:52.545Z,3.17
2018-06-19T22:56:21.234Z,2.70
2018-06-19T22:58:49.855Z,2.97
2018-06-19T23:01:18.478Z,2.87
2018-06-19T23:03:47.102Z,2.70
2018-06-19T23:06:15.690Z,2.87
2018-06-19T23:08:45.735Z,3.27
2018-06-19T23:11:14.348Z,2.33
2018-06-19T23:13:42.953Z,2.60
2018-06-19T23:16:11.597Z,2.97
2018-06-19T23:18:40.173Z,2.50
2018-06-19T23:21:08.782Z,2.47
2018-06-19T23:26:31.445Z,2.53
2018-06-19T23:29:00.137Z,2.70
2018-06-19T23:31:28.730Z,2.90
2018-06-19T23:33:57.355Z,2.87
2018-06-19T23:36:25.989Z,2.77
2018-06-19T23:38:54.579Z,2.80
2018-06-19T23:41:23.198Z,2.80
2018-06-19T23:43:51.949Z,2.90
2018-06-19T23:46:20.561Z,2.80
2018-06-19T23:48:49.203Z,2.43
2018-06-19T23:51:17.827Z,2.80
2018-06-19T23:53:46.443Z,2.90
2018-06-19T23:56:15.064Z,2.80
2018-06-19T23:58:43.659Z,2.87
